createdAt,value
2018-04-13T00:00:02.287Z,99505.83
2018-04-13T00:02:29.892Z,99507.22
2018-04-13T00:04:57.492Z,99497.87
2018-04-13T00:07:25.092Z,99500.38
2018-04-13T00:09:52.747Z,99501.12
2018-04-13T00:12:20.336Z,99507.09
2018-04-13T00:14:47.923Z,99504.58
2018-04-13T00:17:15.532Z,99504.88
2018-04-13T00:19:43.169Z,99508.34
2018-04-13T00:22:10.829Z,99499.41
2018-04-13T00:24:38.432Z,99502.94
2018-04-13T00:27:06.072Z,99498.25
2018-04-13T00:29:33.750Z,99500.55
2018-04-13T00:32:01.352Z,99497.24
2018-04-13T00:34:28.965Z,99492.56
2018-04-13T00:36:56.653Z,99495.77
2018-04-13T00:39:24.314Z,99494.00
2018-04-13T00:41:51.953Z,99489.14
2018-04-13T00:44:19.668Z,99489.02
2018-04-13T00:46:47.256Z,99487.47
2018-04-13T00:49:14.848Z,99489.25
2018-04-13T00:51:42.449Z,99493.80
2018-04-13T00:54:10.042Z,99487.45
2018-04-13T00:56:37.664Z,99483.84
2018-04-13T00:59:05.264Z,99490.25
2018-04-13T01:01:32.921Z,99493.91
2018-04-13T01:04:00.523Z,99496.91
2018-04-13T01:06:28.168Z,99491.30
2018-04-13T01:08:55.769Z,99497.75
2018-04-13T01:11:23.364Z,99495.55
2018-04-13T01:13:51.037Z,99503.03
2018-04-13T01:16:18.632Z,99497.64
2018-04-13T01:18:46.240Z,99497.95
2018-04-13T01:21:13.842Z,99505.23
2018-04-13T01:23:41.460Z,99509.56
2018-04-13T01:26:09.037Z,99513.73
2018-04-13T01:28:36.726Z,99509.91
2018-04-13T01:31:04.402Z,99506.15
2018-04-13T01:33:32.000Z,99505.40
2018-04-13T01:35:59.610Z,99503.09
2018-04-13T01:38:27.273Z,99502.89
2018-04-13T01:40:54.947Z,99503.92
2018-04-13T01:43:22.605Z,99509.11
2018-04-13T01:45:50.232Z,99513.58
2018-04-13T01:48:17.890Z,99514.13
2018-04-13T01:50:45.625Z,99517.66
2018-04-13T01:53:13.238Z,99512.44
2018-04-13T01:55:40.844Z,99512.87
2018-04-13T01:58:08.530Z,99514.03
2018-04-13T02:00:36.148Z,99518.48
2018-04-13T02:03:03.752Z,99522.62
2018-04-13T02:05:31.360Z,99524.83
2018-04-13T02:07:59.033Z,99528.05
2018-04-13T02:10:26.628Z,99527.61
2018-04-13T02:12:54.298Z,99530.10
2018-04-13T02:15:21.964Z,99520.51
2018-04-13T02:17:49.553Z,99525.50
2018-04-13T02:20:17.120Z,99522.58
2018-04-13T02:22:44.682Z,99522.88
2018-04-13T02:25:12.317Z,99519.53
2018-04-13T02:27:39.885Z,99523.41
2018-04-13T02:30:07.517Z,99521.23
2018-04-13T02:32:35.085Z,99520.17
2018-04-13T02:35:02.774Z,99513.30
2018-04-13T02:37:30.350Z,99513.02
2018-04-13T02:39:57.916Z,99510.19
2018-04-13T02:42:25.551Z,99512.89
2018-04-13T02:44:54.084Z,99511.64
2018-04-13T02:47:21.653Z,99518.70
2018-04-13T02:49:49.230Z,99512.89
2018-04-13T02:52:16.817Z,99513.31
2018-04-13T02:54:44.373Z,99509.73
2018-04-13T02:57:12.013Z,99507.11
2018-04-13T02:59:39.564Z,99511.97
2018-04-13T03:02:07.125Z,99511.65
2018-04-13T03:04:34.693Z,99511.72
2018-04-13T03:07:02.252Z,99513.58
2018-04-13T03:09:29.820Z,99516.59
2018-04-13T03:11:57.441Z,99519.36
2018-04-13T03:14:25.008Z,99520.39
2018-04-13T03:16:52.584Z,99522.55
2018-04-13T03:19:20.151Z,99522.61
2018-04-13T03:21:47.700Z,99525.66
2018-04-13T03:24:15.310Z,99525.62
2018-04-13T03:26:42.999Z,99523.28
2018-04-13T03:29:10.629Z,99518.30
2018-04-13T03:31:38.189Z,99514.66
2018-04-13T03:34:05.737Z,99504.84
2018-04-13T03:36:33.292Z,99507.81
2018-04-13T03:39:00.928Z,99520.06
2018-04-13T03:41:28.582Z,99526.70
2018-04-13T03:43:56.206Z,99530.75
2018-04-13T03:46:23.765Z,99532.52
2018-04-13T03:48:51.389Z,99536.44
2018-04-13T03:51:18.959Z,99534.77
2018-04-13T03:53:46.516Z,99540.39
2018-04-13T03:56:14.149Z,99545.59
2018-04-13T03:58:41.720Z,99546.30
2018-04-13T04:01:09.292Z,99545.20
2018-04-13T04:03:36.848Z,99543.22
2018-04-13T04:06:04.481Z,99545.56
2018-04-13T04:08:32.109Z,99546.38
2018-04-13T04:10:59.748Z,99556.08
2018-04-13T04:13:27.396Z,99555.06
2018-04-13T04:15:54.968Z,99562.59
2018-04-13T04:18:22.649Z,99567.17
2018-04-13T04:21:02.636Z,99567.60
2018-04-13T04:23:42.083Z,99571.97
2018-04-13T04:26:28.089Z,99565.33
2018-04-13T04:28:55.687Z,99568.86
2018-04-13T04:31:23.244Z,99569.05
2018-04-13T04:33:50.880Z,99571.12
2018-04-13T04:36:18.497Z,99571.59
2018-04-13T04:38:46.117Z,99578.61
2018-04-13T04:41:13.695Z,99580.03
2018-04-13T04:43:41.262Z,99576.59
2018-04-13T04:46:08.828Z,99585.05
2018-04-13T04:48:36.393Z,99580.58
2018-04-13T04:51:03.964Z,99574.66
2018-04-13T04:53:31.601Z,99585.02
2018-04-13T04:55:59.233Z,99591.72
2018-04-13T04:58:26.900Z,99593.58
2018-04-13T05:00:54.520Z,99598.70
2018-04-13T05:03:22.127Z,99593.26
2018-04-13T05:05:49.687Z,99591.98
2018-04-13T05:08:17.317Z,99595.74
2018-04-13T05:10:44.880Z,99599.02
2018-04-13T05:13:12.513Z,99607.22
2018-04-13T05:15:40.076Z,99619.37
2018-04-13T05:18:07.749Z,99623.73
2018-04-13T05:20:35.301Z,99633.54
2018-04-13T05:23:02.861Z,99641.20
2018-04-13T05:25:30.424Z,99634.86
2018-04-13T05:27:58.012Z,99630.83
2018-04-13T05:30:25.634Z,99615.94
2018-04-13T05:32:53.204Z,99611.91
2018-04-13T05:35:20.897Z,99610.15
2018-04-13T05:37:48.499Z,99613.37
2018-04-13T05:40:16.113Z,99619.62
2018-04-13T05:42:43.685Z,99613.66
2018-04-13T05:45:11.257Z,99613.80
2018-04-13T05:47:38.830Z,99610.91
2018-04-13T05:50:07.210Z,99615.56
2018-04-13T05:52:34.773Z,99620.93
2018-04-13T05:55:02.433Z,99618.92
2018-04-13T05:57:30.045Z,99613.27
2018-04-13T05:59:57.606Z,99617.86
2018-04-13T06:02:25.164Z,99626.95
2018-04-13T06:04:52.793Z,99624.70
2018-04-13T06:07:20.348Z,99620.09
2018-04-13T06:09:47.916Z,99612.14
2018-04-13T06:12:15.471Z,99625.05
2018-04-13T06:14:43.523Z,99628.24
2018-04-13T06:17:11.149Z,99633.27
2018-04-13T06:19:38.760Z,99638.25
2018-04-13T06:22:06.316Z,99635.91
2018-04-13T06:24:33.868Z,99640.81
2018-04-13T06:27:01.493Z,99638.77
2018-04-13T06:29:29.105Z,99645.33
2018-04-13T06:31:56.757Z,99646.63
2018-04-13T06:34:24.319Z,99644.44
2018-04-13T06:36:55.045Z,99644.63
2018-04-13T06:39:19.525Z,99640.77
2018-04-13T06:41:47.157Z,99652.88
2018-04-13T06:44:14.716Z,99648.48
2018-04-13T06:46:42.333Z,99652.19
2018-04-13T06:49:09.962Z,99653.23
2018-04-13T06:51:37.581Z,99658.41
2018-04-13T06:54:05.140Z,99663.19
2018-04-13T06:56:32.752Z,99651.77
2018-04-13T06:59:00.326Z,99655.22
2018-04-13T07:01:27.941Z,99657.67
2018-04-13T07:03:55.516Z,99658.52
2018-04-13T07:06:23.069Z,99666.63
2018-04-13T07:08:50.686Z,99671.70
2018-04-13T07:11:18.255Z,99678.30
2018-04-13T07:13:45.846Z,99680.36
2018-04-13T07:16:13.418Z,99679.13
2018-04-13T07:18:40.977Z,99675.42
2018-04-13T07:21:08.557Z,99678.67
2018-04-13T07:23:36.125Z,99682.56
2018-04-13T07:26:03.743Z,99683.59
2018-04-13T07:28:31.312Z,99679.81
2018-04-13T07:30:58.933Z,99674.70
2018-04-13T07:33:26.504Z,99678.52
2018-04-13T07:35:54.578Z,99681.83
2018-04-13T07:38:21.719Z,99682.66
2018-04-13T07:40:49.337Z,99689.06
2018-04-13T07:43:17.196Z,99694.55
2018-04-13T07:45:44.548Z,99695.13
2018-04-13T07:48:12.111Z,99694.13
2018-04-13T07:50:39.704Z,99694.50
2018-04-13T07:53:07.297Z,99695.27
2018-04-13T07:55:34.868Z,99699.19
2018-04-13T07:58:02.801Z,99694.42
2018-04-13T08:00:30.076Z,99695.06
2018-04-13T08:02:57.984Z,99695.03
2018-04-13T08:05:25.283Z,99688.63
2018-04-13T08:07:52.853Z,99690.52
2018-04-13T08:10:20.469Z,99690.93
2018-04-13T08:12:48.032Z,99689.50
2018-04-13T08:15:15.598Z,99690.29
2018-04-13T08:17:43.178Z,99697.22
2018-04-13T08:20:10.733Z,99697.30
2018-04-13T08:22:38.432Z,99698.86
2018-04-13T08:25:06.005Z,99696.06
2018-04-13T08:27:33.577Z,99702.00
2018-04-13T08:30:01.162Z,99693.23
2018-04-13T08:32:28.721Z,99688.10
2018-04-13T08:34:56.297Z,99684.62
2018-04-13T08:37:23.860Z,99677.14
2018-04-13T08:39:51.464Z,99673.46
2018-04-13T08:42:19.068Z,99675.38
2018-04-13T08:44:46.714Z,99685.62
2018-04-13T08:47:14.304Z,99683.19
2018-04-13T08:49:41.874Z,99688.46
2018-04-13T08:52:09.452Z,99682.28
2018-04-13T08:54:37.017Z,99682.43
2018-04-13T08:57:04.594Z,99682.78
2018-04-13T08:59:32.176Z,99680.40
2018-04-13T09:01:59.793Z,99681.62
2018-04-13T09:04:27.404Z,99676.03
2018-04-13T09:06:54.974Z,99680.22
2018-04-13T09:09:22.546Z,99675.94
2018-04-13T09:11:50.156Z,99684.33
2018-04-13T09:14:17.747Z,99673.73
2018-04-13T09:16:45.296Z,99678.32
2018-04-13T09:19:12.865Z,99679.73
2018-04-13T09:21:40.477Z,99674.80
2018-04-13T09:24:08.164Z,99674.34
2018-04-13T09:26:35.790Z,99678.03
2018-04-13T09:29:03.348Z,99676.80
2018-04-13T09:31:30.941Z,99676.08
2018-04-13T09:33:58.501Z,99679.30
2018-04-13T09:36:26.069Z,99676.36
2018-04-13T09:38:53.702Z,99678.16
2018-04-13T09:41:21.293Z,99669.61
2018-04-13T09:43:48.909Z,99673.47
2018-04-13T09:46:16.529Z,99662.55
2018-04-13T09:48:44.080Z,99660.90
2018-04-13T09:51:11.636Z,99663.00
2018-04-13T09:53:39.257Z,99664.46
2018-04-13T09:56:06.891Z,99657.06
2018-04-13T09:58:34.465Z,99657.64
2018-04-13T10:01:02.071Z,99653.05
2018-04-13T10:03:35.376Z,99642.47
2018-04-13T10:06:03.006Z,99645.47
2018-04-13T10:08:30.700Z,99648.41
2018-04-13T10:10:58.334Z,99652.57
2018-04-13T10:13:25.954Z,99644.49
2018-04-13T10:15:53.577Z,99646.79
2018-04-13T10:18:21.200Z,99651.29
2018-04-13T10:20:48.825Z,99647.79
2018-04-13T10:23:16.441Z,99645.92
2018-04-13T10:25:44.120Z,99646.61
2018-04-13T10:30:41.844Z,99639.69
2018-04-13T10:33:09.414Z,99642.65
2018-04-13T10:35:36.968Z,99643.48
2018-04-13T10:38:04.543Z,99640.55
2018-04-13T10:40:32.100Z,99647.39
2018-04-13T10:42:59.665Z,99647.41
2018-04-13T10:45:27.280Z,99648.10
2018-04-13T10:47:54.900Z,99646.60
2018-04-13T10:50:22.483Z,99644.55
2018-04-13T10:52:50.105Z,99643.98
2018-04-13T10:55:17.693Z,99654.91
2018-04-13T10:57:45.301Z,99653.89
2018-04-13T11:00:12.936Z,99651.87
2018-04-13T11:02:40.489Z,99648.91
2018-04-13T11:05:08.169Z,99654.08
2018-04-13T11:07:35.785Z,99650.59
2018-04-13T11:10:03.429Z,99647.22
2018-04-13T11:12:31.015Z,99646.72
2018-04-13T11:14:58.648Z,99659.30
2018-04-13T11:17:26.272Z,99651.02
2018-04-13T11:19:53.832Z,99653.92
2018-04-13T11:22:21.517Z,99651.37
2018-04-13T11:24:49.185Z,99648.77
2018-04-13T11:27:16.752Z,99652.90
2018-04-13T11:29:44.320Z,99654.04
2018-04-13T11:32:11.939Z,99646.45
2018-04-13T11:34:39.571Z,99654.05
2018-04-13T11:37:07.147Z,99646.70
2018-04-13T11:39:34.753Z,99647.64
2018-04-13T11:42:02.372Z,99643.45
2018-04-13T11:44:29.982Z,99644.15
2018-04-13T11:46:57.618Z,99650.24
2018-04-13T11:49:25.190Z,99638.33
2018-04-13T11:51:52.827Z,99639.46
2018-04-13T11:54:20.365Z,99634.23
2018-04-13T11:56:47.932Z,99639.48
2018-04-13T11:59:15.494Z,99632.19
2018-04-13T12:01:43.148Z,99633.23
2018-04-13T12:04:10.708Z,99631.38
2018-04-13T12:06:38.325Z,99629.53
2018-04-13T12:09:05.960Z,99626.40
2018-04-13T12:11:33.520Z,99630.67
2018-04-13T12:14:01.084Z,99627.55
2018-04-13T12:16:28.704Z,99626.16
2018-04-13T12:18:56.331Z,99622.41
2018-04-13T12:21:23.897Z,99617.08
2018-04-13T12:23:51.535Z,99614.56
2018-04-13T12:26:19.092Z,99617.94
2018-04-13T12:28:46.771Z,99609.41
2018-04-13T12:31:14.431Z,99616.47
2018-04-13T12:33:42.065Z,99607.81
2018-04-13T12:36:09.647Z,99607.69
2018-04-13T12:38:37.204Z,99609.38
2018-04-13T12:41:04.909Z,99608.47
2018-04-13T12:43:32.465Z,99604.80
2018-04-13T12:46:00.089Z,99602.47
2018-04-13T12:48:27.763Z,99606.06
2018-04-13T12:50:55.441Z,99606.48
2018-04-13T12:53:23.079Z,99602.05
2018-04-13T12:55:50.650Z,99600.94
2018-04-13T12:58:18.218Z,99592.95
2018-04-13T13:00:45.837Z,99589.27
2018-04-13T13:03:13.408Z,99589.10
2018-04-13T13:05:40.960Z,99590.50
2018-04-13T13:08:08.583Z,99589.09
2018-04-13T13:10:36.144Z,99590.17
2018-04-13T13:13:03.705Z,99592.13
2018-04-13T13:15:31.278Z,99587.20
2018-04-13T13:17:58.925Z,99585.31
2018-04-13T13:20:26.579Z,99587.55
2018-04-13T13:22:54.136Z,99583.63
2018-04-13T13:25:21.681Z,99585.63
2018-04-13T13:27:49.238Z,99584.98
2018-04-13T13:30:16.911Z,99587.42
2018-04-13T13:32:44.530Z,99585.23
2018-04-13T13:35:12.153Z,99581.17
2018-04-13T13:37:39.772Z,99580.45
2018-04-13T13:40:07.346Z,99580.04
2018-04-13T13:42:34.909Z,99582.13
2018-04-13T13:45:02.588Z,99584.56
2018-04-13T13:47:30.165Z,99581.72
2018-04-13T13:49:57.781Z,99582.75
2018-04-13T13:52:25.400Z,99582.47
2018-04-13T13:54:52.989Z,99578.16
2018-04-13T13:57:20.557Z,99578.26
2018-04-13T13:59:48.181Z,99580.23
2018-04-13T14:02:15.746Z,99583.34
2018-04-13T14:04:43.318Z,99576.45
2018-04-13T14:07:10.885Z,99578.30
2018-04-13T14:09:38.501Z,99579.17
2018-04-13T14:12:06.118Z,99576.39
2018-04-13T14:14:33.677Z,99583.27
2018-04-13T14:17:01.241Z,99585.00
2018-04-13T14:19:28.897Z,99590.72
2018-04-13T14:21:56.461Z,99585.19
2018-04-13T14:24:24.016Z,99584.69
2018-04-13T14:26:51.585Z,99587.56
2018-04-13T14:29:19.145Z,99589.02
2018-04-13T14:31:46.777Z,99592.99
2018-04-13T14:34:14.360Z,99589.41
2018-04-13T14:36:41.991Z,99588.86
2018-04-13T14:39:10.449Z,99590.31
2018-04-13T14:41:38.107Z,99589.61
2018-04-13T14:44:05.687Z,99591.41
2018-04-13T14:46:33.327Z,99588.30
2018-04-13T14:49:00.973Z,99588.16
2018-04-13T14:51:28.544Z,99586.95
2018-04-13T14:53:56.152Z,99589.20
2018-04-13T14:56:23.721Z,99586.83
2018-04-13T14:58:51.290Z,99590.61
2018-04-13T15:01:18.869Z,99584.31
2018-04-13T15:03:46.436Z,99585.44
2018-04-13T15:06:14.009Z,99587.42
2018-04-13T15:08:41.567Z,99588.13
2018-04-13T15:11:09.133Z,99588.27
2018-04-13T15:13:36.745Z,99587.64
2018-04-13T15:16:04.382Z,99591.17
2018-04-13T15:18:32.011Z,99589.56
2018-04-13T15:20:59.569Z,99599.74
2018-04-13T15:23:27.136Z,99590.50
2018-04-13T15:25:54.672Z,99591.57
2018-04-13T15:28:22.273Z,99594.52
2018-04-13T15:30:49.903Z,99596.75
2018-04-13T15:33:17.523Z,99590.22
2018-04-13T15:35:45.147Z,99593.77
2018-04-13T15:38:12.746Z,99591.09
2018-04-13T15:40:40.304Z,99600.09
2018-04-13T15:43:07.865Z,99594.70
2018-04-13T15:45:35.464Z,99597.81
2018-04-13T15:48:03.036Z,99602.09
2018-04-13T15:50:30.671Z,99599.66
2018-04-13T15:52:58.238Z,99605.37
2018-04-13T15:55:25.848Z,99605.88
2018-04-13T15:57:53.413Z,99605.20
2018-04-13T16:00:20.986Z,99603.81
2018-04-13T16:02:48.554Z,99612.87
2018-04-13T16:05:16.114Z,99611.45
2018-04-13T16:07:43.691Z,99608.63
2018-04-13T16:10:11.244Z,99615.58
2018-04-13T16:12:38.815Z,99613.72
2018-04-13T16:15:06.443Z,99617.23
2018-04-13T16:17:34.060Z,99615.67
2018-04-13T16:20:01.690Z,99617.20
2018-04-13T16:22:29.262Z,99620.03
2018-04-13T16:24:56.836Z,99615.25
2018-04-13T16:27:24.400Z,99622.98
2018-04-13T16:29:51.971Z,99619.30
2018-04-13T16:32:19.532Z,99617.67
2018-04-13T16:34:47.148Z,99629.34
2018-04-13T16:37:14.708Z,99631.85
2018-04-13T16:39:42.269Z,99634.19
2018-04-13T16:42:09.841Z,99633.10
2018-04-13T16:44:37.397Z,99632.27
2018-04-13T16:47:04.965Z,99631.02
2018-04-13T16:49:32.580Z,99635.92
2018-04-13T16:52:00.230Z,99636.31
2018-04-13T16:54:27.792Z,99636.57
2018-04-13T16:56:55.390Z,99644.77
2018-04-13T16:59:22.969Z,99646.11
2018-04-13T17:01:50.592Z,99645.53
2018-04-13T17:04:18.226Z,99653.73
2018-04-13T17:06:45.791Z,99665.45
2018-04-13T17:09:13.430Z,99666.67
2018-04-13T17:11:40.994Z,99674.58
2018-04-13T17:14:08.733Z,99679.98
2018-04-13T17:16:36.352Z,99683.36
2018-04-13T17:19:03.972Z,99679.59
2018-04-13T17:21:31.605Z,99681.33
2018-04-13T17:23:59.169Z,99682.92
2018-04-13T17:26:26.820Z,99685.77
2018-04-13T17:28:54.384Z,99688.02
2018-04-13T17:31:21.995Z,99699.72
2018-04-13T17:33:49.625Z,99701.06
2018-04-13T17:36:17.254Z,99693.95
2018-04-13T17:38:44.895Z,99698.48
2018-04-13T17:41:12.529Z,99693.80
2018-04-13T17:43:40.097Z,99694.50
2018-04-13T17:46:07.642Z,99695.71
2018-04-13T17:48:35.212Z,99698.41
2018-04-13T17:51:02.776Z,99698.34
2018-04-13T17:53:30.400Z,99715.38
2018-04-13T17:55:58.058Z,99718.87
2018-04-13T17:58:25.684Z,99722.88
2018-04-13T18:00:53.352Z,99729.84
2018-04-13T18:03:20.980Z,99731.92
2018-04-13T18:05:48.613Z,99734.32
2018-04-13T18:08:16.235Z,99742.75
2018-04-13T18:10:43.865Z,99745.25
2018-04-13T18:13:12.149Z,99746.19
2018-04-13T18:15:39.726Z,99757.50
2018-04-13T18:18:07.368Z,99762.34
2018-04-13T18:20:34.937Z,99760.63
2018-04-13T18:23:02.617Z,99778.61
2018-04-13T18:25:30.240Z,99766.81
2018-04-13T18:27:57.875Z,99775.77
2018-04-13T18:30:25.497Z,99780.39
2018-04-13T18:32:53.113Z,99788.36
2018-04-13T18:35:20.680Z,99790.66
2018-04-13T18:37:48.309Z,99791.27
2018-04-13T18:40:15.876Z,99794.78
2018-04-13T18:42:43.468Z,99802.86
2018-04-13T18:45:11.105Z,99800.41
2018-04-13T18:47:38.695Z,99805.46
2018-04-13T18:50:06.324Z,99799.31
2018-04-13T18:52:33.898Z,99802.02
2018-04-13T18:55:01.579Z,99800.23
2018-04-13T18:57:29.140Z,99795.31
2018-04-13T18:59:56.765Z,99801.59
2018-04-13T19:02:24.329Z,99803.00
2018-04-13T19:04:51.909Z,99807.01
2018-04-13T19:07:19.549Z,99802.70
2018-04-13T19:09:47.103Z,99799.59
2018-04-13T19:12:14.732Z,99811.05
2018-04-13T19:14:42.296Z,99806.30
2018-04-13T19:17:09.988Z,99804.88
2018-04-13T19:19:37.548Z,99815.69
2018-04-13T19:22:05.112Z,99821.30
2018-04-13T19:24:32.744Z,99826.78
2018-04-13T19:27:00.308Z,99826.56
2018-04-13T19:29:27.877Z,99827.63
2018-04-13T19:31:55.501Z,99829.66
2018-04-13T19:34:23.082Z,99823.50
2018-04-13T19:36:50.644Z,99820.95
2018-04-13T19:39:18.264Z,99827.05
2018-04-13T19:41:45.830Z,99828.83
2018-04-13T19:44:13.400Z,99832.80
2018-04-13T19:46:41.033Z,99838.11
2018-04-13T19:49:08.669Z,99842.53
2018-04-13T19:51:36.246Z,99843.94
2018-04-13T19:54:03.813Z,99843.69
2018-04-13T19:56:31.384Z,99845.16
2018-04-13T19:58:58.944Z,99851.64
2018-04-13T20:01:26.572Z,99855.09
2018-04-13T20:03:54.128Z,99854.36
2018-04-13T20:06:21.689Z,99855.59
2018-04-13T20:08:49.256Z,99862.55
2018-04-13T20:11:16.877Z,99874.19
2018-04-13T20:13:44.468Z,99871.52
2018-04-13T20:16:12.096Z,99872.14
2018-04-13T20:18:39.664Z,99879.98
2018-04-13T20:21:07.289Z,99881.03
2018-04-13T20:23:34.925Z,99877.83
2018-04-13T20:26:02.545Z,99885.87
2018-04-13T20:28:30.208Z,99897.20
2018-04-13T20:30:57.775Z,99890.83
2018-04-13T20:33:25.337Z,99904.36
2018-04-13T20:35:52.913Z,99909.05
2018-04-13T20:38:20.541Z,99907.56
2018-04-13T20:40:48.116Z,99913.74
2018-04-13T20:43:15.699Z,99920.48
2018-04-13T20:45:43.269Z,99925.06
2018-04-13T20:48:10.908Z,99925.01
2018-04-13T20:50:38.528Z,99931.42
2018-04-13T20:53:06.098Z,99934.09
2018-04-13T20:55:33.679Z,99940.47
2018-04-13T20:58:01.256Z,99932.69
2018-04-13T21:00:28.821Z,99943.78
2018-04-13T21:02:56.401Z,99945.63
2018-04-13T21:05:23.968Z,99954.09
2018-04-13T21:07:51.541Z,99947.92
2018-04-13T21:10:19.108Z,99951.95
2018-04-13T21:12:46.732Z,99953.73
2018-04-13T21:15:14.307Z,99955.52
2018-04-13T21:17:41.870Z,99949.50
2018-04-13T21:20:09.442Z,99953.30
2018-04-13T21:22:37.012Z,99961.90
2018-04-13T21:25:04.668Z,99960.23
2018-04-13T21:27:32.242Z,99963.11
2018-04-13T21:29:59.916Z,99960.77
2018-04-13T21:32:27.476Z,99972.13
2018-04-13T21:34:55.035Z,99978.50
2018-04-13T21:37:22.661Z,99973.98
2018-04-13T21:39:50.246Z,99975.59
2018-04-13T21:42:17.820Z,99971.00
2018-04-13T21:44:45.395Z,99979.51
2018-04-13T21:47:12.969Z,99978.11
2018-04-13T21:49:40.528Z,99977.08
2018-04-13T21:52:08.197Z,99987.83
2018-04-13T21:54:35.760Z,99993.01
2018-04-13T21:57:03.387Z,99998.06
2018-04-13T21:59:30.980Z,100002.91
2018-04-13T22:01:58.597Z,99996.09
2018-04-13T22:04:26.186Z,100002.02
2018-04-13T22:06:53.773Z,100006.94
2018-04-13T22:09:21.400Z,99997.34
2018-04-13T22:11:48.970Z,100003.27
2018-04-13T22:14:28.573Z,100011.50
2018-04-13T22:16:56.151Z,100013.69
2018-04-13T22:19:23.727Z,100016.20
2018-04-13T22:21:51.360Z,100022.56
2018-04-13T22:24:18.924Z,100023.01
2018-04-13T22:26:46.497Z,100029.09
2018-04-13T22:29:14.063Z,100032.22
2018-04-13T22:31:41.729Z,100038.82
2018-04-13T22:34:09.294Z,100036.20
2018-04-13T22:36:36.931Z,100034.12
2018-04-13T22:39:04.642Z,100032.03
2018-04-13T22:41:32.208Z,100033.51
2018-04-13T22:43:59.778Z,100045.27
2018-04-13T22:46:27.408Z,100045.34
2018-04-13T22:48:55.032Z,100050.49
2018-04-13T22:51:22.655Z,100055.30
2018-04-13T22:53:50.237Z,100047.88
2018-04-13T22:56:17.821Z,100050.19
2018-04-13T22:58:45.450Z,100052.14
2018-04-13T23:01:13.030Z,100052.16
2018-04-13T23:03:40.668Z,100056.42
2018-04-13T23:06:08.266Z,100048.61
2018-04-13T23:08:35.900Z,100059.72
2018-04-13T23:11:03.509Z,100058.36
2018-04-13T23:13:31.072Z,100067.41
2018-04-13T23:15:58.680Z,100062.91
2018-04-13T23:18:26.256Z,100072.30
2018-04-13T23:20:53.841Z,100074.81
2018-04-13T23:23:21.475Z,100078.37
2018-04-13T23:25:49.064Z,100081.77
2018-04-13T23:28:16.680Z,100079.73
2018-04-13T23:30:44.253Z,100091.52
2018-04-13T23:33:11.822Z,100087.34
2018-04-13T23:35:39.447Z,100084.08
2018-04-13T23:38:07.082Z,100084.08
2018-04-13T23:40:34.693Z,100078.74
2018-04-13T23:43:02.285Z,100077.91
2018-04-13T23:45:29.911Z,100076.05
2018-04-13T23:47:57.545Z,100077.08
2018-04-13T23:50:25.131Z,100079.08
2018-04-13T23:52:52.716Z,100075.81
2018-04-13T23:55:20.340Z,100083.46
2018-04-13T23:57:47.911Z,100080.23
